createdAt,value
2023-05-17T00:00:08.047Z,2.20
2023-05-17T00:01:08.917Z,1.50
2023-05-17T00:02:09.816Z,1.80
2023-05-17T00:03:10.743Z,2.70
2023-05-17T00:04:11.648Z,3.40
2023-05-17T00:05:12.498Z,1.90
2023-05-17T00:06:13.402Z,3.20
2023-05-17T00:07:14.277Z,1.60
2023-05-17T00:08:15.154Z,0.90
2023-05-17T00:09:16.035Z,1.10
2023-05-17T00:10:16.960Z,1.70
2023-05-17T00:11:17.819Z,1.80
2023-05-17T00:12:18.711Z,1.80
2023-05-17T00:13:19.599Z,3.10
2023-05-17T00:14:20.577Z,2.50
2023-05-17T00:15:21.395Z,2.30
2023-05-17T00:16:22.304Z,1.20
2023-05-17T00:17:23.197Z,4.70
2023-05-17T00:18:24.149Z,2.30
2023-05-17T00:19:25.190Z,2.40
2023-05-17T00:20:25.676Z,1.30
2023-05-17T00:21:26.582Z,1.60
2023-05-17T00:22:27.455Z,1.30
2023-05-17T00:23:28.339Z,2.90
2023-05-17T00:24:29.234Z,1.90
2023-05-17T00:25:30.525Z,1.60
2023-05-17T00:26:31.003Z,1.50
2023-05-17T00:27:31.890Z,1.50
2023-05-17T00:28:32.784Z,1.80
2023-05-17T00:29:33.784Z,2.00
2023-05-17T00:30:34.177Z,1.70
2023-05-17T00:31:35.032Z,3.10
2023-05-17T00:32:35.931Z,1.00
2023-05-17T00:33:36.906Z,2.20
2023-05-17T00:34:37.840Z,0.90
2023-05-17T00:35:38.681Z,2.70
2023-05-17T00:36:39.571Z,1.80
2023-05-17T00:37:40.453Z,1.30
2023-05-17T00:38:41.329Z,1.40
2023-05-17T00:39:42.223Z,2.00
2023-05-17T00:40:43.097Z,3.00
2023-05-17T00:41:43.977Z,3.10
2023-05-17T00:42:44.859Z,4.90
2023-05-17T00:43:45.772Z,3.50
2023-05-17T00:44:46.667Z,1.90
2023-05-17T00:45:47.533Z,2.00
2023-05-17T00:46:48.406Z,2.40
2023-05-17T00:47:49.361Z,1.40
2023-05-17T00:48:50.257Z,2.10
2023-05-17T00:49:51.124Z,1.80
2023-05-17T00:50:52.016Z,2.20
2023-05-17T00:51:52.883Z,1.30
2023-05-17T00:52:53.779Z,2.20
2023-05-17T00:53:54.670Z,2.20
2023-05-17T00:54:55.569Z,2.30
2023-05-17T00:55:56.451Z,2.40
2023-05-17T00:56:57.346Z,1.30
2023-05-17T00:57:58.241Z,1.70
2023-05-17T00:58:59.189Z,1.20
2023-05-17T01:00:00.103Z,1.60
2023-05-17T01:01:00.956Z,2.40
2023-05-17T01:02:01.854Z,1.00
2023-05-17T01:03:02.840Z,1.90
2023-05-17T01:04:03.293Z,1.30
2023-05-17T01:05:04.197Z,2.30
2023-05-17T01:06:05.046Z,2.40
2023-05-17T01:07:05.934Z,2.90
2023-05-17T01:08:06.824Z,1.40
2023-05-17T01:09:07.747Z,1.20
2023-05-17T01:10:08.597Z,1.30
2023-05-17T01:11:09.475Z,1.60
2023-05-17T01:12:10.369Z,2.20
2023-05-17T01:13:11.250Z,1.10
2023-05-17T01:14:12.133Z,1.00
2023-05-17T01:15:13.125Z,1.10
2023-05-17T01:16:13.951Z,1.40
2023-05-17T01:17:14.976Z,0.90
2023-05-17T01:18:15.438Z,1.60
2023-05-17T01:19:16.353Z,0.90
2023-05-17T01:20:17.220Z,1.50
2023-05-17T01:21:18.092Z,1.60
2023-05-17T01:22:18.964Z,1.40
2023-05-17T01:23:19.843Z,1.00
2023-05-17T01:24:20.733Z,0.60
2023-05-17T01:25:21.618Z,1.30
2023-05-17T01:26:22.516Z,0.60
2023-05-17T01:27:23.392Z,0.80
2023-05-17T01:28:24.292Z,1.40
2023-05-17T01:29:25.169Z,0.80
2023-05-17T01:30:26.151Z,1.20
2023-05-17T01:31:26.967Z,2.30
2023-05-17T01:32:27.931Z,0.80
2023-05-17T01:33:28.941Z,1.10
2023-05-17T01:34:29.339Z,1.20
2023-05-17T01:35:30.455Z,1.00
2023-05-17T01:36:30.908Z,0.80
2023-05-17T01:37:31.781Z,1.50
2023-05-17T01:38:32.672Z,1.00
2023-05-17T01:39:33.556Z,1.10
2023-05-17T01:40:34.450Z,0.50
2023-05-17T01:41:35.339Z,3.50
2023-05-17T01:42:36.221Z,1.00
2023-05-17T01:43:37.095Z,0.60
2023-05-17T01:44:37.985Z,1.30
2023-05-17T01:45:38.985Z,0.90
2023-05-17T01:46:39.807Z,0.70
2023-05-17T01:47:40.768Z,1.10
2023-05-17T01:48:41.641Z,1.00
2023-05-17T01:49:42.502Z,0.90
2023-05-17T01:50:43.382Z,1.00
2023-05-17T01:51:44.339Z,1.20
2023-05-17T01:52:45.223Z,0.50
2023-05-17T01:53:46.132Z,0.60
2023-05-17T01:54:46.995Z,1.50
2023-05-17T01:55:47.885Z,1.20
2023-05-17T01:56:48.765Z,0.80
2023-05-17T01:57:49.635Z,1.00
2023-05-17T01:58:50.529Z,0.50
2023-05-17T01:59:51.407Z,0.60
2023-05-17T02:00:52.476Z,0.50
2023-05-17T02:01:52.823Z,0.90
2023-05-17T02:02:53.779Z,1.10
2023-05-17T02:03:54.720Z,0.70
2023-05-17T02:04:55.689Z,0.70
2023-05-17T02:05:56.551Z,2.40
2023-05-17T02:06:57.422Z,0.80
2023-05-17T02:07:58.323Z,0.80
2023-05-17T02:08:59.199Z,1.30
2023-05-17T02:10:00.123Z,2.90
2023-05-17T02:11:00.979Z,3.40
2023-05-17T02:12:01.907Z,2.20
2023-05-17T02:13:02.769Z,0.80
2023-05-17T02:14:03.660Z,2.90
2023-05-17T02:15:04.527Z,1.20
2023-05-17T02:16:05.533Z,1.10
2023-05-17T02:17:06.360Z,0.70
2023-05-17T02:18:07.353Z,3.30
2023-05-17T02:19:07.789Z,1.40
2023-05-17T02:20:08.657Z,0.90
2023-05-17T02:21:09.510Z,1.60
2023-05-17T02:22:10.413Z,1.30
2023-05-17T02:23:11.317Z,2.80
2023-05-17T02:24:12.215Z,1.20
2023-05-17T02:25:13.097Z,1.30
2023-05-17T02:26:13.997Z,0.90
2023-05-17T02:27:14.938Z,1.20
2023-05-17T02:28:15.826Z,0.90
2023-05-17T02:29:16.706Z,0.60
2023-05-17T02:30:18.341Z,1.20
2023-05-17T02:31:18.426Z,0.80
2023-05-17T02:32:19.247Z,0.70
2023-05-17T02:33:20.179Z,1.60
2023-05-17T02:34:20.641Z,0.70
2023-05-17T02:35:21.535Z,1.60
2023-05-17T02:36:22.425Z,1.10
2023-05-17T02:37:23.315Z,0.90
2023-05-17T02:38:24.191Z,1.00
2023-05-17T02:39:25.083Z,1.00
2023-05-17T02:40:25.973Z,0.90
2023-05-17T02:41:26.862Z,1.50
2023-05-17T02:42:27.743Z,1.00
2023-05-17T02:43:28.650Z,2.90
2023-05-17T02:44:29.541Z,1.00
2023-05-17T02:45:30.632Z,1.00
2023-05-17T02:46:31.293Z,3.40
2023-05-17T02:47:31.709Z,1.30
2023-05-17T02:48:32.166Z,2.80
2023-05-17T02:49:33.060Z,1.60
2023-05-17T02:50:33.955Z,1.20
2023-05-17T02:51:34.842Z,1.00
2023-05-17T02:52:35.728Z,1.70
2023-05-17T02:53:36.605Z,1.90
2023-05-17T02:54:37.522Z,1.20
2023-05-17T02:55:38.381Z,1.50
2023-05-17T02:56:39.266Z,3.70
2023-05-17T02:57:40.146Z,2.80
2023-05-17T02:58:41.025Z,2.70
2023-05-17T02:59:41.917Z,2.20
2023-05-17T03:00:42.799Z,1.60
2023-05-17T03:01:43.788Z,2.20
2023-05-17T03:02:44.678Z,1.30
2023-05-17T03:03:45.815Z,1.50
2023-05-17T03:04:46.493Z,1.40
2023-05-17T03:05:46.907Z,1.00
2023-05-17T03:06:47.783Z,0.80
2023-05-17T03:07:48.669Z,1.30
2023-05-17T03:08:49.569Z,1.60
2023-05-17T03:09:50.441Z,1.30
2023-05-17T03:10:51.322Z,1.20
2023-05-17T03:11:52.207Z,1.50
2023-05-17T03:12:53.095Z,0.80
2023-05-17T03:13:53.990Z,1.60
2023-05-17T03:14:54.885Z,0.80
2023-05-17T03:15:55.751Z,1.20
2023-05-17T03:16:56.743Z,0.90
2023-05-17T03:17:57.664Z,1.00
2023-05-17T03:18:58.168Z,1.00
2023-05-17T03:19:58.639Z,1.00
2023-05-17T03:20:59.499Z,2.00
2023-05-17T03:22:00.369Z,3.10
2023-05-17T03:23:01.251Z,3.30
2023-05-17T03:24:02.080Z,1.60
2023-05-17T03:25:02.965Z,1.20
2023-05-17T03:26:03.849Z,1.90
2023-05-17T03:27:04.758Z,2.00
2023-05-17T03:28:05.639Z,1.50
2023-05-17T03:29:06.473Z,1.70
2023-05-17T03:30:07.308Z,1.20
2023-05-17T03:31:08.246Z,2.50
2023-05-17T03:32:09.198Z,1.20
2023-05-17T03:33:10.093Z,3.70
2023-05-17T03:34:11.027Z,1.20
2023-05-17T03:35:11.851Z,1.50
2023-05-17T03:36:12.685Z,0.60
2023-05-17T03:37:13.595Z,1.30
2023-05-17T03:38:14.466Z,1.80
2023-05-17T03:39:15.344Z,0.70
2023-05-17T03:40:16.232Z,1.90
2023-05-17T03:41:17.080Z,1.20
2023-05-17T03:42:17.924Z,1.00
2023-05-17T03:43:18.739Z,0.80
2023-05-17T03:44:19.574Z,1.60
2023-05-17T03:45:20.397Z,0.50
2023-05-17T03:46:21.237Z,0.70
2023-05-17T03:47:22.222Z,0.80
2023-05-17T03:48:23.029Z,0.90
2023-05-17T03:49:23.848Z,1.40
2023-05-17T03:50:24.738Z,1.90
2023-05-17T03:51:25.610Z,0.70
2023-05-17T03:52:26.420Z,0.70
2023-05-17T03:53:27.250Z,1.50
2023-05-17T03:54:28.093Z,1.70
2023-05-17T03:55:29.078Z,5.10
2023-05-17T03:56:29.500Z,5.20
2023-05-17T03:57:30.338Z,2.80
2023-05-17T03:58:31.178Z,1.30
2023-05-17T03:59:32.008Z,2.00
2023-05-17T04:00:32.850Z,1.60
2023-05-17T04:01:33.676Z,10.80
2023-05-17T04:02:34.711Z,22.50
2023-05-17T04:03:35.079Z,11.90
2023-05-17T04:04:35.920Z,9.50
2023-05-17T04:05:36.735Z,6.60
2023-05-17T04:06:37.564Z,5.00
2023-05-17T04:07:38.396Z,2.20
2023-05-17T04:08:39.218Z,1.50
2023-05-17T04:09:40.079Z,2.00
2023-05-17T04:10:40.937Z,5.90
2023-05-17T04:11:41.773Z,5.90
2023-05-17T04:12:42.597Z,9.40
2023-05-17T04:13:43.456Z,5.40
2023-05-17T04:14:44.285Z,6.20
2023-05-17T04:15:45.130Z,4.00
2023-05-17T04:16:45.955Z,1.60
2023-05-17T04:17:46.934Z,1.80
2023-05-17T04:18:47.825Z,2.10
2023-05-17T04:19:48.700Z,0.60
2023-05-17T04:20:49.485Z,0.80
2023-05-17T04:21:50.313Z,1.10
2023-05-17T04:22:51.152Z,1.50
2023-05-17T04:23:51.984Z,1.40
2023-05-17T04:24:52.818Z,1.20
2023-05-17T04:25:53.640Z,0.60
2023-05-17T04:26:54.496Z,0.90
2023-05-17T04:27:55.324Z,1.60
2023-05-17T04:28:56.158Z,2.70
2023-05-17T04:29:56.989Z,2.00
2023-05-17T04:30:57.813Z,2.30
2023-05-17T04:31:58.644Z,1.50
2023-05-17T04:32:59.762Z,0.70
2023-05-17T04:34:00.121Z,1.20
2023-05-17T04:35:00.920Z,1.30
2023-05-17T04:36:01.739Z,0.90
2023-05-17T04:37:02.571Z,1.60
2023-05-17T04:38:03.413Z,1.00
2023-05-17T04:39:04.268Z,1.60
2023-05-17T04:40:05.075Z,0.90
2023-05-17T04:41:05.894Z,1.60
2023-05-17T04:42:06.740Z,1.90
2023-05-17T04:43:07.572Z,1.20
2023-05-17T04:44:08.399Z,2.00
2023-05-17T04:45:09.236Z,1.20
2023-05-17T04:46:10.073Z,0.90
2023-05-17T04:47:10.911Z,1.90
2023-05-17T04:48:11.986Z,1.20
2023-05-17T04:49:12.368Z,1.10
2023-05-17T04:50:13.201Z,1.20
2023-05-17T04:51:14.017Z,0.70
2023-05-17T04:52:14.857Z,0.80
2023-05-17T04:53:15.699Z,1.10
2023-05-17T04:54:16.512Z,1.10
2023-05-17T04:55:17.343Z,1.10
2023-05-17T04:56:18.175Z,1.20
2023-05-17T04:57:19.017Z,1.90
2023-05-17T04:58:19.847Z,1.40
2023-05-17T04:59:20.679Z,1.40
2023-05-17T05:00:21.505Z,3.30
2023-05-17T05:01:22.349Z,2.60
2023-05-17T05:02:23.200Z,2.40
2023-05-17T05:03:24.280Z,2.10
2023-05-17T05:04:24.608Z,3.10
2023-05-17T05:05:25.423Z,2.00
2023-05-17T05:06:26.253Z,5.50
2023-05-17T05:07:27.085Z,3.50
2023-05-17T05:08:27.928Z,2.00
2023-05-17T05:09:28.759Z,1.70
2023-05-17T05:10:29.603Z,3.60
2023-05-17T05:11:30.445Z,1.70
2023-05-17T05:12:31.269Z,4.70
2023-05-17T05:13:32.094Z,2.40
2023-05-17T05:14:32.932Z,7.30
2023-05-17T05:15:33.769Z,4.00
2023-05-17T05:16:34.606Z,4.40
2023-05-17T05:17:35.491Z,2.30
2023-05-17T05:18:36.633Z,2.70
2023-05-17T05:19:37.063Z,4.50
2023-05-17T05:20:37.888Z,3.00
2023-05-17T05:21:38.715Z,3.80
2023-05-17T05:22:39.571Z,8.30
2023-05-17T05:23:40.371Z,3.10
2023-05-17T05:24:41.823Z,2.30
2023-05-17T05:25:42.106Z,2.40
2023-05-17T05:26:42.975Z,0.80
2023-05-17T05:27:43.761Z,3.30
2023-05-17T05:28:44.589Z,2.90
2023-05-17T05:29:45.449Z,2.50
2023-05-17T05:30:46.277Z,3.20
2023-05-17T05:31:47.104Z,3.90
2023-05-17T05:32:48.074Z,3.90
2023-05-17T05:33:49.226Z,1.90
2023-05-17T05:34:49.614Z,1.30
2023-05-17T05:35:50.429Z,1.20
2023-05-17T05:36:51.257Z,1.10
2023-05-17T05:37:52.095Z,4.70
2023-05-17T05:38:52.931Z,5.40
2023-05-17T05:39:53.755Z,4.10
2023-05-17T05:40:54.589Z,5.30
2023-05-17T05:41:55.421Z,4.20
2023-05-17T05:42:56.258Z,3.00
2023-05-17T05:43:57.101Z,2.50
2023-05-17T05:44:57.914Z,16.70
2023-05-17T05:45:58.759Z,19.60
2023-05-17T05:46:59.580Z,17.90
2023-05-17T05:48:00.507Z,17.30
2023-05-17T05:49:01.629Z,9.90
2023-05-17T05:50:02.031Z,9.80
2023-05-17T05:51:02.816Z,5.90
2023-05-17T05:52:03.647Z,4.40
2023-05-17T05:53:17.461Z,3.50
2023-05-17T05:54:06.819Z,5.60
2023-05-17T05:55:06.172Z,2.70
2023-05-17T05:56:06.984Z,2.90
2023-05-17T05:57:07.828Z,2.80
2023-05-17T05:58:08.673Z,2.40
2023-05-17T05:59:09.514Z,2.20
2023-05-17T06:00:10.342Z,3.00
2023-05-17T06:01:11.161Z,2.70
2023-05-17T06:02:12.009Z,1.70
2023-05-17T06:03:12.846Z,1.70
2023-05-17T06:04:13.845Z,1.70
2023-05-17T06:05:14.655Z,1.60
2023-05-17T06:06:15.485Z,1.30
2023-05-17T06:07:16.325Z,0.90
2023-05-17T06:08:17.149Z,1.40
2023-05-17T06:09:17.962Z,0.90
2023-05-17T06:10:18.825Z,2.40
2023-05-17T06:11:19.679Z,1.30
2023-05-17T06:12:20.505Z,1.50
2023-05-17T06:13:21.347Z,1.40
2023-05-17T06:14:22.162Z,1.10
2023-05-17T06:15:23.480Z,0.70
2023-05-17T06:16:23.788Z,1.20
2023-05-17T06:17:24.671Z,1.20
2023-05-17T06:18:25.540Z,2.20
2023-05-17T06:19:26.599Z,1.20
2023-05-17T06:20:27.079Z,1.10
2023-05-17T06:21:27.496Z,0.80
2023-05-17T06:22:28.330Z,1.50
2023-05-17T06:23:29.151Z,1.10
2023-05-17T06:24:29.997Z,0.90
2023-05-17T06:25:30.841Z,1.00
2023-05-17T06:26:31.690Z,0.70
2023-05-17T06:27:32.499Z,0.50
2023-05-17T06:28:33.347Z,1.00
2023-05-17T06:29:34.163Z,0.80
2023-05-17T06:30:34.993Z,0.70
2023-05-17T06:31:35.813Z,0.70
2023-05-17T06:32:36.712Z,1.10
2023-05-17T06:33:37.523Z,0.60
2023-05-17T06:34:38.340Z,0.80
2023-05-17T06:35:54.715Z,2.10
2023-05-17T06:36:40.988Z,0.90
2023-05-17T06:37:40.750Z,1.60
2023-05-17T06:38:41.580Z,2.10
2023-05-17T06:39:42.667Z,2.20
2023-05-17T06:40:43.106Z,4.60
2023-05-17T06:41:43.926Z,5.00
2023-05-17T06:42:44.782Z,1.80
2023-05-17T06:43:45.595Z,2.90
2023-05-17T06:44:46.427Z,3.60
2023-05-17T06:45:47.261Z,4.60
2023-05-17T06:46:48.111Z,3.30
2023-05-17T06:47:49.050Z,4.30
2023-05-17T06:48:51.338Z,4.00
2023-05-17T06:49:50.903Z,3.50
2023-05-17T06:50:51.661Z,2.70
2023-05-17T06:51:52.491Z,1.70
2023-05-17T06:52:53.324Z,2.40
2023-05-17T06:53:54.162Z,1.40
2023-05-17T06:54:55.016Z,1.70
2023-05-17T06:55:55.842Z,0.90
2023-05-17T06:56:56.665Z,0.60
2023-05-17T06:57:57.494Z,0.80
2023-05-17T06:58:58.375Z,1.20
2023-05-17T06:59:59.248Z,1.20
2023-05-17T07:01:00.073Z,1.10
2023-05-17T07:02:00.916Z,0.90
2023-05-17T07:03:01.976Z,1.30
2023-05-17T07:04:02.416Z,0.70
2023-05-17T07:05:03.064Z,2.60
2023-05-17T07:06:03.400Z,1.20
2023-05-17T07:07:04.202Z,1.40
2023-05-17T07:08:05.051Z,1.30
2023-05-17T07:09:05.876Z,1.00
2023-05-17T07:10:06.697Z,1.30
2023-05-17T07:11:07.526Z,1.60
2023-05-17T07:12:08.366Z,1.10
2023-05-17T07:13:09.227Z,2.10
2023-05-17T07:14:10.049Z,1.40
2023-05-17T07:15:10.889Z,1.00
2023-05-17T07:16:11.718Z,0.90
2023-05-17T07:17:13.340Z,0.80
2023-05-17T07:18:13.265Z,1.60
2023-05-17T07:19:14.249Z,0.70
2023-05-17T07:20:15.043Z,0.80
2023-05-17T07:21:15.406Z,0.70
2023-05-17T07:22:16.255Z,1.10
2023-05-17T07:23:17.101Z,0.90
2023-05-17T07:24:17.913Z,3.50
2023-05-17T07:25:18.749Z,1.90
2023-05-17T07:26:19.581Z,5.30
2023-05-17T07:27:20.410Z,12.70
2023-05-17T07:28:21.260Z,19.20
2023-05-17T07:29:22.099Z,20.80
2023-05-17T07:30:22.924Z,12.40
2023-05-17T07:31:23.777Z,9.20
2023-05-17T07:32:24.615Z,3.10
2023-05-17T07:33:25.432Z,7.10
2023-05-17T07:34:26.275Z,5.60
2023-05-17T07:35:27.622Z,3.80
2023-05-17T07:36:28.069Z,3.70
2023-05-17T07:37:28.691Z,2.50
2023-05-17T07:38:29.528Z,3.40
2023-05-17T07:39:30.346Z,2.90
2023-05-17T07:40:31.183Z,2.50
2023-05-17T07:41:32.045Z,3.20
2023-05-17T07:42:32.871Z,3.60
2023-05-17T07:43:33.709Z,2.20
2023-05-17T07:44:34.561Z,2.90
2023-05-17T07:45:35.393Z,4.40
2023-05-17T07:46:36.236Z,2.80
2023-05-17T07:47:37.087Z,1.80
2023-05-17T07:48:38.024Z,3.10
2023-05-17T07:49:38.912Z,1.10
2023-05-17T07:50:39.784Z,1.10
2023-05-17T07:51:40.656Z,1.10
2023-05-17T07:52:41.437Z,1.80
2023-05-17T07:53:42.258Z,1.30
2023-05-17T07:54:43.122Z,1.50
2023-05-17T07:55:43.941Z,3.10
2023-05-17T07:56:44.774Z,1.90
2023-05-17T07:57:45.604Z,1.10
2023-05-17T07:58:46.418Z,2.40
2023-05-17T07:59:47.280Z,2.50
2023-05-17T08:00:48.089Z,3.10
2023-05-17T08:01:49.040Z,2.10
2023-05-17T08:02:49.912Z,2.80
2023-05-17T08:03:50.729Z,2.00
2023-05-17T08:04:51.707Z,6.80
2023-05-17T08:05:52.941Z,6.10
2023-05-17T08:06:53.214Z,6.50
2023-05-17T08:07:54.039Z,3.70
2023-05-17T08:08:54.875Z,2.90
2023-05-17T08:09:55.730Z,4.10
2023-05-17T08:10:56.535Z,2.80
2023-05-17T08:11:58.391Z,2.70
2023-05-17T08:12:58.204Z,3.50
2023-05-17T08:13:59.048Z,4.30
2023-05-17T08:14:59.875Z,6.20
2023-05-17T08:16:08.803Z,7.30
2023-05-17T08:17:02.425Z,2.20
2023-05-17T08:18:04.552Z,3.30
2023-05-17T08:19:02.959Z,3.90
2023-05-17T08:20:03.350Z,5.00
2023-05-17T08:21:04.231Z,4.20
2023-05-17T08:22:04.992Z,4.00
2023-05-17T08:23:05.870Z,3.80
2023-05-17T08:24:06.664Z,4.00
2023-05-17T08:25:07.512Z,3.10
2023-05-17T08:26:08.320Z,3.20
2023-05-17T08:27:09.176Z,2.60
2023-05-17T08:28:09.994Z,2.90
2023-05-17T08:29:10.829Z,3.10
2023-05-17T08:30:14.881Z,2.60
2023-05-17T08:31:13.390Z,3.50
2023-05-17T08:32:13.214Z,3.60
2023-05-17T08:33:14.115Z,3.60
2023-05-17T08:34:15.050Z,2.70
2023-05-17T08:35:15.868Z,2.50
2023-05-17T08:36:16.724Z,3.70
2023-05-17T08:37:17.587Z,2.90
2023-05-17T08:38:20.688Z,2.90
2023-05-17T08:39:19.112Z,3.90
2023-05-17T08:40:19.996Z,4.20
2023-05-17T08:41:20.826Z,2.80
2023-05-17T08:42:21.646Z,3.70
2023-05-17T08:43:22.489Z,3.30
2023-05-17T08:44:23.310Z,5.80
2023-05-17T08:45:24.144Z,4.60
2023-05-17T08:46:24.987Z,4.40
2023-05-17T08:47:25.897Z,4.50
2023-05-17T08:48:26.966Z,7.70
2023-05-17T08:49:27.495Z,5.50
2023-05-17T08:50:28.486Z,4.70
2023-05-17T08:51:29.141Z,3.80
2023-05-17T08:52:29.930Z,5.10
2023-05-17T08:53:30.762Z,4.90
2023-05-17T08:54:31.589Z,3.90
2023-05-17T08:55:32.469Z,4.00
2023-05-17T08:56:33.269Z,3.90
2023-05-17T08:57:34.103Z,4.00
2023-05-17T08:58:48.154Z,4.40
2023-05-17T08:59:36.673Z,4.20
2023-05-17T09:00:36.506Z,4.40
2023-05-17T09:01:37.330Z,3.90
2023-05-17T09:02:38.212Z,6.50
2023-05-17T09:03:39.171Z,5.80
2023-05-17T09:04:39.733Z,5.40
2023-05-17T09:05:40.192Z,5.60
2023-05-17T09:06:41.024Z,4.90
2023-05-17T09:07:41.826Z,5.70
2023-05-17T09:08:42.653Z,4.30
2023-05-17T09:09:43.520Z,4.50
2023-05-17T09:10:44.355Z,6.80
2023-05-17T09:11:45.173Z,8.20
2023-05-17T09:12:45.998Z,9.20
2023-05-17T09:13:46.828Z,8.80
2023-05-17T09:14:47.666Z,11.00
2023-05-17T09:15:48.513Z,8.90
2023-05-17T09:16:49.324Z,8.80
2023-05-17T09:17:50.269Z,9.70
2023-05-17T09:18:51.279Z,9.40
2023-05-17T09:19:51.808Z,10.80
2023-05-17T09:20:52.615Z,7.30
2023-05-17T09:21:53.480Z,5.50
2023-05-17T09:22:54.285Z,4.40
2023-05-17T09:24:05.600Z,4.00
2023-05-17T09:24:56.841Z,5.20
2023-05-17T09:25:56.667Z,6.70
2023-05-17T09:26:57.497Z,4.10
2023-05-17T09:27:58.345Z,3.60
2023-05-17T09:28:59.163Z,8.70
2023-05-17T09:29:59.995Z,4.70
2023-05-17T09:31:00.834Z,4.10
2023-05-17T09:32:01.656Z,5.10
2023-05-17T09:33:02.492Z,5.70
2023-05-17T09:34:03.365Z,4.20
2023-05-17T09:35:04.206Z,5.00
2023-05-17T09:36:05.018Z,3.10
2023-05-17T09:37:05.871Z,4.00
2023-05-17T09:38:06.711Z,5.10
2023-05-17T09:39:07.519Z,4.30
2023-05-17T09:40:08.348Z,6.10
2023-05-17T09:41:09.200Z,4.30
2023-05-17T09:42:10.016Z,4.50
2023-05-17T09:43:10.853Z,4.10
2023-05-17T09:44:11.805Z,6.70
2023-05-17T09:45:12.193Z,4.50
2023-05-17T09:46:13.016Z,4.20
2023-05-17T09:47:13.893Z,4.80
2023-05-17T09:48:14.808Z,3.90
2023-05-17T09:49:15.218Z,4.80
2023-05-17T09:50:16.034Z,5.30
2023-05-17T09:51:16.862Z,5.90
2023-05-17T09:52:17.787Z,5.80
2023-05-17T09:53:18.567Z,4.50
2023-05-17T09:54:19.423Z,6.40
2023-05-17T09:55:20.228Z,5.20
2023-05-17T09:56:21.045Z,4.70
2023-05-17T09:57:21.884Z,4.30
2023-05-17T09:58:22.713Z,3.90
2023-05-17T09:59:23.555Z,5.70
2023-05-17T10:00:24.392Z,7.80
2023-05-17T10:01:25.215Z,3.70
2023-05-17T10:02:26.089Z,5.90
2023-05-17T10:03:26.941Z,5.00
2023-05-17T10:04:27.737Z,4.00
2023-05-17T10:05:28.771Z,5.00
2023-05-17T10:06:44.209Z,3.90
2023-05-17T10:07:30.991Z,15.80
2023-05-17T10:08:30.802Z,6.70
2023-05-17T10:09:31.627Z,4.70
2023-05-17T10:10:32.471Z,5.10
2023-05-17T10:11:33.314Z,5.20
2023-05-17T10:12:34.136Z,6.40
2023-05-17T10:13:34.965Z,5.10
2023-05-17T10:14:35.828Z,5.10
2023-05-17T10:15:36.646Z,5.60
2023-05-17T10:16:37.472Z,5.00
2023-05-17T10:17:38.338Z,6.20
2023-05-17T10:18:39.289Z,6.70
2023-05-17T10:19:39.833Z,8.40
2023-05-17T10:20:40.190Z,6.90
2023-05-17T10:21:41.016Z,6.70
2023-05-17T10:22:41.883Z,9.30
2023-05-17T10:23:42.676Z,5.80
2023-05-17T10:24:43.529Z,5.70
2023-05-17T10:25:44.356Z,6.00
2023-05-17T10:26:45.193Z,7.80
2023-05-17T10:27:46.021Z,6.50
2023-05-17T10:28:46.845Z,6.10
2023-05-17T10:29:50.141Z,7.10
2023-05-17T10:30:48.590Z,5.00
2023-05-17T10:31:49.405Z,6.10
2023-05-17T10:32:50.337Z,6.20
2023-05-17T10:33:51.234Z,4.20
2023-05-17T10:35:05.852Z,3.80
2023-05-17T10:35:53.767Z,6.60
2023-05-17T10:36:53.606Z,4.60
2023-05-17T10:37:54.448Z,4.40
2023-05-17T10:38:55.273Z,4.10
2023-05-17T10:39:56.109Z,3.70
2023-05-17T10:40:56.930Z,4.80
2023-05-17T10:42:07.160Z,5.00
2023-05-17T10:42:59.486Z,4.80
2023-05-17T10:43:59.315Z,4.10
2023-05-17T10:45:00.188Z,4.70
2023-05-17T10:46:00.972Z,4.90
2023-05-17T10:47:01.803Z,3.40
2023-05-17T10:48:02.731Z,6.50
2023-05-17T10:49:03.635Z,4.40
2023-05-17T10:50:04.399Z,3.90
2023-05-17T10:51:05.248Z,7.20
2023-05-17T10:52:06.073Z,5.60
2023-05-17T10:53:06.941Z,4.80
2023-05-17T10:54:07.755Z,5.20
2023-05-17T10:55:08.597Z,5.80
2023-05-17T10:56:09.456Z,4.80
2023-05-17T10:57:10.279Z,5.90
2023-05-17T10:58:11.118Z,4.10
2023-05-17T10:59:11.962Z,4.60
2023-05-17T11:00:12.798Z,6.10
2023-05-17T11:01:13.642Z,5.30
2023-05-17T11:02:14.466Z,5.20
2023-05-17T11:03:15.013Z,4.20
2023-05-17T11:04:15.862Z,4.70
2023-05-17T11:05:16.716Z,4.60
2023-05-17T11:06:24.649Z,3.30
2023-05-17T11:07:19.346Z,3.50
2023-05-17T11:08:19.200Z,4.30
2023-05-17T11:09:19.984Z,6.20
2023-05-17T11:10:20.816Z,4.70
2023-05-17T11:11:21.632Z,5.00
2023-05-17T11:12:22.472Z,6.70
2023-05-17T11:13:23.327Z,4.70
2023-05-17T11:14:24.136Z,3.70
2023-05-17T11:15:24.978Z,3.70
2023-05-17T11:16:25.804Z,4.10
2023-05-17T11:17:26.675Z,3.80
2023-05-17T11:18:31.353Z,4.20
2023-05-17T11:19:29.236Z,5.00
2023-05-17T11:20:29.323Z,4.80
2023-05-17T11:21:29.761Z,5.90
2023-05-17T11:22:30.608Z,6.80
2023-05-17T11:23:31.464Z,6.60
2023-05-17T11:24:32.269Z,5.90
2023-05-17T11:25:33.111Z,6.60
2023-05-17T11:26:33.961Z,5.60
2023-05-17T11:27:34.770Z,6.10
2023-05-17T11:28:35.635Z,7.70
2023-05-17T11:29:37.766Z,6.20
2023-05-17T11:30:37.145Z,4.10
2023-05-17T11:31:37.995Z,6.10
2023-05-17T11:32:38.870Z,4.90
2023-05-17T11:33:39.814Z,6.10
2023-05-17T11:34:40.365Z,7.50
2023-05-17T11:35:40.758Z,5.60
2023-05-17T11:36:41.600Z,4.00
2023-05-17T11:37:42.431Z,3.20
2023-05-17T11:38:43.278Z,4.90
2023-05-17T11:39:44.101Z,3.30
2023-05-17T11:40:44.954Z,5.20
2023-05-17T11:41:45.755Z,8.10
2023-05-17T11:42:46.593Z,5.70
2023-05-17T11:43:47.414Z,4.40
2023-05-17T11:44:48.238Z,3.90
2023-05-17T11:45:51.331Z,6.00
2023-05-17T11:46:49.810Z,4.70
2023-05-17T11:47:50.746Z,2.90
2023-05-17T11:48:51.616Z,6.50
2023-05-17T11:49:53.720Z,3.90
2023-05-17T11:50:53.279Z,5.30
2023-05-17T11:51:54.121Z,8.00
2023-05-17T11:52:54.938Z,3.50
2023-05-17T11:53:55.973Z,5.60
2023-05-17T11:54:56.376Z,5.90
2023-05-17T11:55:57.205Z,4.10
2023-05-17T11:56:58.036Z,5.80
2023-05-17T11:57:58.862Z,5.10
2023-05-17T11:58:59.691Z,5.70
2023-05-17T12:00:00.554Z,6.70
2023-05-17T12:01:01.396Z,4.30
2023-05-17T12:02:02.218Z,5.70
2023-05-17T12:03:03.086Z,8.10
2023-05-17T12:04:03.926Z,8.30
2023-05-17T12:05:04.805Z,6.30
2023-05-17T12:06:05.652Z,3.60
2023-05-17T12:07:06.430Z,6.20
2023-05-17T12:08:07.254Z,7.80
2023-05-17T12:09:08.144Z,4.30
2023-05-17T12:10:08.948Z,6.70
2023-05-17T12:11:09.768Z,7.10
2023-05-17T12:12:10.609Z,5.30
2023-05-17T12:13:11.471Z,6.70
2023-05-17T12:14:12.282Z,5.40
2023-05-17T12:15:13.110Z,5.40
2023-05-17T12:16:16.819Z,7.30
2023-05-17T12:17:14.764Z,5.10
2023-05-17T12:18:15.692Z,2.80
2023-05-17T12:19:16.635Z,4.00
2023-05-17T12:20:17.545Z,5.40
2023-05-17T12:21:18.340Z,5.20
2023-05-17T12:22:19.156Z,4.20
2023-05-17T12:23:19.992Z,4.60
2023-05-17T12:24:20.864Z,3.40
2023-05-17T12:25:21.651Z,5.40
2023-05-17T12:26:22.482Z,6.90
2023-05-17T12:27:23.331Z,8.10
2023-05-17T12:28:24.156Z,5.90
2023-05-17T12:29:24.992Z,6.40
2023-05-17T12:30:25.820Z,4.30
2023-05-17T12:31:26.653Z,5.20
2023-05-17T12:32:27.538Z,4.60
2023-05-17T12:33:28.478Z,5.10
2023-05-17T12:34:29.303Z,4.90
2023-05-17T12:35:30.143Z,4.70
2023-05-17T12:36:30.968Z,4.10
2023-05-17T12:37:31.823Z,4.40
2023-05-17T12:38:32.648Z,6.80
2023-05-17T12:39:33.490Z,7.50
2023-05-17T12:40:34.300Z,6.20
2023-05-17T12:41:35.136Z,5.60
2023-05-17T12:42:35.965Z,7.50
2023-05-17T12:43:36.809Z,9.00
2023-05-17T12:44:37.624Z,4.50
2023-05-17T12:45:38.450Z,5.30
2023-05-17T12:46:39.289Z,4.60
2023-05-17T12:47:40.134Z,5.80
2023-05-17T12:48:41.203Z,4.20
2023-05-17T12:49:41.571Z,5.90
2023-05-17T12:50:42.399Z,5.10
2023-05-17T12:51:43.282Z,9.40
2023-05-17T12:52:44.090Z,4.70
2023-05-17T12:53:44.939Z,3.10
2023-05-17T12:54:45.777Z,4.20
2023-05-17T12:55:46.593Z,7.60
2023-05-17T12:56:47.428Z,5.50
2023-05-17T12:57:48.264Z,7.20
2023-05-17T12:58:49.090Z,4.40
2023-05-17T12:59:49.933Z,4.80
2023-05-17T13:00:50.751Z,5.70
2023-05-17T13:01:51.584Z,5.50
2023-05-17T13:02:52.547Z,3.30
2023-05-17T13:03:53.474Z,7.00
2023-05-17T13:04:53.960Z,3.60
2023-05-17T13:05:54.872Z,4.50
2023-05-17T13:06:55.680Z,3.70
2023-05-17T13:07:56.505Z,8.50
2023-05-17T13:08:57.346Z,5.40
2023-05-17T13:09:58.206Z,7.40
2023-05-17T13:10:59.022Z,6.30
2023-05-17T13:11:59.858Z,5.60
2023-05-17T13:13:00.684Z,6.70
2023-05-17T13:14:01.510Z,3.50
2023-05-17T13:15:02.381Z,5.50
2023-05-17T13:16:03.179Z,4.70
2023-05-17T13:17:04.008Z,4.20
2023-05-17T13:18:04.957Z,5.50
2023-05-17T13:19:05.884Z,8.40
2023-05-17T13:20:09.546Z,5.60
2023-05-17T13:21:07.387Z,4.40
2023-05-17T13:22:08.210Z,4.10
2023-05-17T13:23:09.039Z,4.20
2023-05-17T13:24:09.900Z,5.00
2023-05-17T13:25:10.842Z,6.30
2023-05-17T13:26:11.631Z,5.00
2023-05-17T13:27:12.440Z,4.20
2023-05-17T13:28:13.263Z,5.30
2023-05-17T13:29:14.104Z,4.20